sensor_id;sensor_type;location;lat;lon;timestamp;temperature;humidity
56308;DHT22;42217;50.422;7.210;2023-09-19T00:02:21;15.00;99.90
56308;DHT22;42217;50.422;7.210;2023-09-19T00:04:47;14.90;99.90
56308;DHT22;42217;50.422;7.210;2023-09-19T00:07:14;14.70;99.90
56308;DHT22;42217;50.422;7.210;2023-09-19T00:09:41;14.60;99.90
56308;DHT22;42217;50.422;7.210;2023-09-19T00:12:09;14.60;99.90
56308;DHT22;42217;50.422;7.210;2023-09-19T00:14:35;14.60;99.90
56308;DHT22;42217;50.422;7.210;2023-09-19T00:17:04;14.60;99.90
56308;DHT22;42217;50.422;7.210;2023-09-19T00:19:35;14.60;99.90
56308;DHT22;42217;50.422;7.210;2023-09-19T00:22:01;14.50;99.90
56308;DHT22;42217;50.422;7.210;2023-09-19T00:24:26;14.50;99.90
56308;DHT22;42217;50.422;7.210;2023-09-19T00:26:53;14.70;99.90
56308;DHT22;42217;50.422;7.210;2023-09-19T00:29:21;14.70;99.90
56308;DHT22;42217;50.422;7.210;2023-09-19T00:31:46;14.80;99.90
56308;DHT22;42217;50.422;7.210;2023-09-19T00:34:12;14.80;99.90
56308;DHT22;42217;50.422;7.210;2023-09-19T00:36:38;14.70;99.90
56308;DHT22;42217;50.422;7.210;2023-09-19T00:39:08;14.60;99.90
56308;DHT22;42217;50.422;7.210;2023-09-19T00:41:36;14.70;99.90
56308;DHT22;42217;50.422;7.210;2023-09-19T00:44:02;14.70;99.90
56308;DHT22;42217;50.422;7.210;2023-09-19T00:46:30;14.70;99.90
56308;DHT22;42217;50.422;7.210;2023-09-19T00:48:56;14.60;99.90
56308;DHT22;42217;50.422;7.210;2023-09-19T00:51:23;14.60;99.90
56308;DHT22;42217;50.422;7.210;2023-09-19T00:53:52;14.50;99.90
56308;DHT22;42217;50.422;7.210;2023-09-19T00:56:18;14.50;99.90
56308;DHT22;42217;50.422;7.210;2023-09-19T00:58:47;14.60;99.90
56308;DHT22;42217;50.422;7.210;2023-09-19T01:01:13;14.60;99.90
56308;DHT22;42217;50.422;7.210;2023-09-19T01:03:41;14.60;99.90
56308;DHT22;42217;50.422;7.210;2023-09-19T01:06:07;14.50;99.90
56308;DHT22;42217;50.422;7.210;2023-09-19T01:08:36;14.50;99.90
56308;DHT22;42217;50.422;7.210;2023-09-19T01:13:59;14.50;99.90
56308;DHT22;42217;50.422;7.210;2023-09-19T01:19:01;14.30;99.90
56308;DHT22;42217;50.422;7.210;2023-09-19T01:24:54;14.50;99.90
56308;DHT22;42217;50.422;7.210;2023-09-19T01:29:50;14.30;99.90
56308;DHT22;42217;50.422;7.210;2023-09-19T01:32:17;14.20;99.90
56308;DHT22;42217;50.422;7.210;2023-09-19T01:34:55;14.30;99.90
56308;DHT22;42217;50.422;7.210;2023-09-19T01:37:23;14.10;99.90
56308;DHT22;42217;50.422;7.210;2023-09-19T01:39:56;14.00;99.90
56308;DHT22;42217;50.422;7.210;2023-09-19T01:42:40;13.80;99.90
56308;DHT22;42217;50.422;7.210;2023-09-19T01:45:19;13.90;99.90
56308;DHT22;42217;50.422;7.210;2023-09-19T01:47:54;13.80;99.90
56308;DHT22;42217;50.422;7.210;2023-09-19T01:53:10;13.80;99.90
56308;DHT22;42217;50.422;7.210;2023-09-19T01:55:43;13.90;99.90
56308;DHT22;42217;50.422;7.210;2023-09-19T01:58:17;13.80;99.90
56308;DHT22;42217;50.422;7.210;2023-09-19T02:00:49;13.90;99.90
56308;DHT22;42217;50.422;7.210;2023-09-19T02:03:18;14.00;99.90
56308;DHT22;42217;50.422;7.210;2023-09-19T02:05:51;13.90;99.90
56308;DHT22;42217;50.422;7.210;2023-09-19T02:08:20;14.00;99.90
56308;DHT22;42217;50.422;7.210;2023-09-19T02:10:46;14.10;99.90
56308;DHT22;42217;50.422;7.210;2023-09-19T02:13:18;14.20;99.90
56308;DHT22;42217;50.422;7.210;2023-09-19T02:15:44;14.20;99.90
56308;DHT22;42217;50.422;7.210;2023-09-19T02:18:11;14.40;99.90
56308;DHT22;42217;50.422;7.210;2023-09-19T02:20:40;14.50;99.90
56308;DHT22;42217;50.422;7.210;2023-09-19T02:23:06;14.40;99.90
56308;DHT22;42217;50.422;7.210;2023-09-19T02:25:32;14.50;99.90
56308;DHT22;42217;50.422;7.210;2023-09-19T02:27:57;14.50;99.90
56308;DHT22;42217;50.422;7.210;2023-09-19T02:30:29;14.70;99.90
56308;DHT22;42217;50.422;7.210;2023-09-19T02:32:55;14.80;99.90
56308;DHT22;42217;50.422;7.210;2023-09-19T02:35:20;14.80;99.90
56308;DHT22;42217;50.422;7.210;2023-09-19T02:37:47;14.60;99.90
56308;DHT22;42217;50.422;7.210;2023-09-19T02:40:13;14.40;99.90
56308;DHT22;42217;50.422;7.210;2023-09-19T02:42:53;14.00;99.90
56308;DHT22;42217;50.422;7.210;2023-09-19T02:45:19;14.00;99.90
56308;DHT22;42217;50.422;7.210;2023-09-19T02:47:46;13.90;99.90
56308;DHT22;42217;50.422;7.210;2023-09-19T02:50:13;13.90;99.90
56308;DHT22;42217;50.422;7.210;2023-09-19T02:52:45;14.20;99.90
56308;DHT22;42217;50.422;7.210;2023-09-19T02:55:16;14.40;99.90
56308;DHT22;42217;50.422;7.210;2023-09-19T02:57:50;14.50;99.90
56308;DHT22;42217;50.422;7.210;2023-09-19T03:00:18;14.50;99.90
56308;DHT22;42217;50.422;7.210;2023-09-19T03:02:52;14.40;99.90
56308;DHT22;42217;50.422;7.210;2023-09-19T03:05:19;14.40;99.90
56308;DHT22;42217;50.422;7.210;2023-09-19T03:07:47;14.30;99.90
56308;DHT22;42217;50.422;7.210;2023-09-19T03:10:16;14.20;99.90
56308;DHT22;42217;50.422;7.210;2023-09-19T03:12:43;14.20;99.90
56308;DHT22;42217;50.422;7.210;2023-09-19T03:15:09;14.10;99.90
56308;DHT22;42217;50.422;7.210;2023-09-19T03:17:35;14.10;99.90
56308;DHT22;42217;50.422;7.210;2023-09-19T03:20:02;14.00;99.90
56308;DHT22;42217;50.422;7.210;2023-09-19T03:22:28;14.00;99.90
56308;DHT22;42217;50.422;7.210;2023-09-19T03:24:54;14.00;99.90
56308;DHT22;42217;50.422;7.210;2023-09-19T03:27:20;13.90;99.90
56308;DHT22;42217;50.422;7.210;2023-09-19T03:29:46;13.90;99.90
56308;DHT22;42217;50.422;7.210;2023-09-19T03:32:12;13.90;99.90
56308;DHT22;42217;50.422;7.210;2023-09-19T03:34:38;13.90;99.90
56308;DHT22;42217;50.422;7.210;2023-09-19T03:37:09;13.60;99.90
56308;DHT22;42217;50.422;7.210;2023-09-19T03:39:35;13.30;99.90
56308;DHT22;42217;50.422;7.210;2023-09-19T03:42:01;13.30;99.90
56308;DHT22;42217;50.422;7.210;2023-09-19T03:44:30;13.20;99.90
56308;DHT22;42217;50.422;7.210;2023-09-19T03:46:56;13.30;99.90
56308;DHT22;42217;50.422;7.210;2023-09-19T03:49:22;13.50;99.90
56308;DHT22;42217;50.422;7.210;2023-09-19T03:51:48;13.80;99.90
56308;DHT22;42217;50.422;7.210;2023-09-19T03:54:14;13.80;99.90
56308;DHT22;42217;50.422;7.210;2023-09-19T03:56:39;13.60;99.90
56308;DHT22;42217;50.422;7.210;2023-09-19T03:59:05;13.50;99.90
56308;DHT22;42217;50.422;7.210;2023-09-19T04:01:31;13.30;99.90
56308;DHT22;42217;50.422;7.210;2023-09-19T04:03:59;13.20;99.90
56308;DHT22;42217;50.422;7.210;2023-09-19T04:06:36;13.10;99.90
56308;DHT22;42217;50.422;7.210;2023-09-19T04:09:04;12.90;99.90
56308;DHT22;42217;50.422;7.210;2023-09-19T04:11:32;12.80;99.90
56308;DHT22;42217;50.422;7.210;2023-09-19T04:13:58;12.60;99.90
56308;DHT22;42217;50.422;7.210;2023-09-19T04:16:24;12.50;99.90
56308;DHT22;42217;50.422;7.210;2023-09-19T04:18:50;12.50;99.90
56308;DHT22;42217;50.422;7.210;2023-09-19T04:21:16;12.60;99.90
56308;DHT22;42217;50.422;7.210;2023-09-19T04:23:42;12.70;99.90
56308;DHT22;42217;50.422;7.210;2023-09-19T04:26:08;12.70;99.90
56308;DHT22;42217;50.422;7.210;2023-09-19T04:28:34;12.80;99.90
56308;DHT22;42217;50.422;7.210;2023-09-19T04:31:00;12.90;99.90
56308;DHT22;42217;50.422;7.210;2023-09-19T04:33:26;12.80;99.90
56308;DHT22;42217;50.422;7.210;2023-09-19T04:35:55;12.80;99.90
56308;DHT22;42217;50.422;7.210;2023-09-19T04:38:21;12.70;99.90
56308;DHT22;42217;50.422;7.210;2023-09-19T04:40:47;12.70;99.90
56308;DHT22;42217;50.422;7.210;2023-09-19T04:43:13;12.60;99.90
56308;DHT22;42217;50.422;7.210;2023-09-19T04:45:41;12.40;99.90
56308;DHT22;42217;50.422;7.210;2023-09-19T04:48:06;12.40;99.90
56308;DHT22;42217;50.422;7.210;2023-09-19T04:50:33;12.40;99.90
56308;DHT22;42217;50.422;7.210;2023-09-19T04:53:00;12.70;99.90
56308;DHT22;42217;50.422;7.210;2023-09-19T04:55:26;12.70;99.90
56308;DHT22;42217;50.422;7.210;2023-09-19T04:57:52;12.50;99.90
56308;DHT22;42217;50.422;7.210;2023-09-19T05:00:19;12.40;99.90
56308;DHT22;42217;50.422;7.210;2023-09-19T05:02:52;12.30;99.90
56308;DHT22;42217;50.422;7.210;2023-09-19T05:05:18;12.20;99.90
56308;DHT22;42217;50.422;7.210;2023-09-19T05:07:45;12.10;99.90
56308;DHT22;42217;50.422;7.210;2023-09-19T05:10:11;12.00;99.90
56308;DHT22;42217;50.422;7.210;2023-09-19T05:12:40;11.90;99.90
56308;DHT22;42217;50.422;7.210;2023-09-19T05:15:07;11.90;99.90
56308;DHT22;42217;50.422;7.210;2023-09-19T05:17:34;12.00;99.90
56308;DHT22;42217;50.422;7.210;2023-09-19T05:20:00;12.10;99.90
56308;DHT22;42217;50.422;7.210;2023-09-19T05:22:31;12.20;99.90
56308;DHT22;42217;50.422;7.210;2023-09-19T05:25:00;12.20;99.90
56308;DHT22;42217;50.422;7.210;2023-09-19T05:27:28;12.20;99.90
56308;DHT22;42217;50.422;7.210;2023-09-19T05:29:54;12.00;99.90
56308;DHT22;42217;50.422;7.210;2023-09-19T05:32:21;11.90;99.90
56308;DHT22;42217;50.422;7.210;2023-09-19T05:34:47;11.80;99.90
56308;DHT22;42217;50.422;7.210;2023-09-19T05:37:13;11.70;99.90
56308;DHT22;42217;50.422;7.210;2023-09-19T05:39:42;11.60;99.90
56308;DHT22;42217;50.422;7.210;2023-09-19T05:42:08;11.70;99.90
56308;DHT22;42217;50.422;7.210;2023-09-19T05:44:33;11.80;99.90
56308;DHT22;42217;50.422;7.210;2023-09-19T05:46:59;11.80;99.90
56308;DHT22;42217;50.422;7.210;2023-09-19T05:49:25;11.90;99.90
56308;DHT22;42217;50.422;7.210;2023-09-19T05:51:51;11.90;99.90
56308;DHT22;42217;50.422;7.210;2023-09-19T05:54:19;12.10;99.90
56308;DHT22;42217;50.422;7.210;2023-09-19T05:56:45;12.20;99.90
56308;DHT22;42217;50.422;7.210;2023-09-19T05:59:12;12.30;99.90
56308;DHT22;42217;50.422;7.210;2023-09-19T06:01:43;12.40;99.90
56308;DHT22;42217;50.422;7.210;2023-09-19T06:04:09;12.50;99.90
56308;DHT22;42217;50.422;7.210;2023-09-19T06:06:35;12.50;99.90
56308;DHT22;42217;50.422;7.210;2023-09-19T06:09:04;12.70;99.90
56308;DHT22;42217;50.422;7.210;2023-09-19T06:11:34;12.80;99.90
56308;DHT22;42217;50.422;7.210;2023-09-19T06:14:04;12.90;99.90
56308;DHT22;42217;50.422;7.210;2023-09-19T06:16:30;13.10;99.90
56308;DHT22;42217;50.422;7.210;2023-09-19T06:18:59;13.20;99.90
56308;DHT22;42217;50.422;7.210;2023-09-19T06:21:28;13.30;99.90
56308;DHT22;42217;50.422;7.210;2023-09-19T06:23:54;13.40;99.90
56308;DHT22;42217;50.422;7.210;2023-09-19T06:26:19;13.40;99.90
56308;DHT22;42217;50.422;7.210;2023-09-19T06:28:45;13.50;99.90
56308;DHT22;42217;50.422;7.210;2023-09-19T06:31:11;13.50;99.90
56308;DHT22;42217;50.422;7.210;2023-09-19T06:33:37;13.70;99.90
56308;DHT22;42217;50.422;7.210;2023-09-19T06:36:07;13.70;99.90
56308;DHT22;42217;50.422;7.210;2023-09-19T06:38:33;13.70;99.90
56308;DHT22;42217;50.422;7.210;2023-09-19T06:41:02;13.80;99.90
56308;DHT22;42217;50.422;7.210;2023-09-19T06:43:31;13.90;99.90
56308;DHT22;42217;50.422;7.210;2023-09-19T06:46:01;13.90;99.90
56308;DHT22;42217;50.422;7.210;2023-09-19T06:48:28;14.00;99.90
56308;DHT22;42217;50.422;7.210;2023-09-19T06:50:58;14.10;99.90
56308;DHT22;42217;50.422;7.210;2023-09-19T06:53:26;14.10;99.90
56308;DHT22;42217;50.422;7.210;2023-09-19T06:55:52;14.10;99.90
56308;DHT22;42217;50.422;7.210;2023-09-19T06:58:18;14.10;99.90
56308;DHT22;42217;50.422;7.210;2023-09-19T07:00:45;14.10;99.90
56308;DHT22;42217;50.422;7.210;2023-09-19T07:03:13;14.20;99.90
56308;DHT22;42217;50.422;7.210;2023-09-19T07:05:40;14.20;99.90
56308;DHT22;42217;50.422;7.210;2023-09-19T07:08:09;14.20;99.90
56308;DHT22;42217;50.422;7.210;2023-09-19T07:10:38;14.10;99.90
56308;DHT22;42217;50.422;7.210;2023-09-19T07:13:14;14.10;99.90
56308;DHT22;42217;50.422;7.210;2023-09-19T07:15:43;14.20;99.90
56308;DHT22;42217;50.422;7.210;2023-09-19T07:18:16;14.20;99.90
56308;DHT22;42217;50.422;7.210;2023-09-19T07:20:46;14.20;99.90
56308;DHT22;42217;50.422;7.210;2023-09-19T07:23:18;14.30;99.90
56308;DHT22;42217;50.422;7.210;2023-09-19T07:25:44;14.40;99.90
56308;DHT22;42217;50.422;7.210;2023-09-19T07:28:12;14.50;99.90
56308;DHT22;42217;50.422;7.210;2023-09-19T07:30:38;14.70;99.90
56308;DHT22;42217;50.422;7.210;2023-09-19T07:33:05;14.80;99.90
56308;DHT22;42217;50.422;7.210;2023-09-19T07:35:31;15.00;99.90
56308;DHT22;42217;50.422;7.210;2023-09-19T07:37:57;15.20;99.90
56308;DHT22;42217;50.422;7.210;2023-09-19T07:40:24;15.30;99.90
56308;DHT22;42217;50.422;7.210;2023-09-19T07:42:52;15.30;99.90
56308;DHT22;42217;50.422;7.210;2023-09-19T07:45:18;15.40;99.90
56308;DHT22;42217;50.422;7.210;2023-09-19T07:47:44;15.60;99.90
56308;DHT22;42217;50.422;7.210;2023-09-19T07:50:11;15.70;99.90
56308;DHT22;42217;50.422;7.210;2023-09-19T07:52:36;15.70;99.90
56308;DHT22;42217;50.422;7.210;2023-09-19T07:55:08;15.90;99.90
56308;DHT22;42217;50.422;7.210;2023-09-19T07:57:35;15.90;99.90
56308;DHT22;42217;50.422;7.210;2023-09-19T08:00:01;15.90;99.90
56308;DHT22;42217;50.422;7.210;2023-09-19T08:02:33;15.70;99.90
56308;DHT22;42217;50.422;7.210;2023-09-19T08:04:59;15.80;99.90
56308;DHT22;42217;50.422;7.210;2023-09-19T08:07:26;15.90;99.90
56308;DHT22;42217;50.422;7.210;2023-09-19T08:09:51;16.10;99.90
56308;DHT22;42217;50.422;7.210;2023-09-19T08:12:17;16.50;99.90
56308;DHT22;42217;50.422;7.210;2023-09-19T08:14:45;16.30;99.90
56308;DHT22;42217;50.422;7.210;2023-09-19T08:17:14;16.20;99.90
56308;DHT22;42217;50.422;7.210;2023-09-19T08:19:39;16.30;99.90
56308;DHT22;42217;50.422;7.210;2023-09-19T08:22:07;16.40;99.90
56308;DHT22;42217;50.422;7.210;2023-09-19T08:24:36;16.40;99.90
56308;DHT22;42217;50.422;7.210;2023-09-19T08:27:04;16.40;99.90
56308;DHT22;42217;50.422;7.210;2023-09-19T08:29:31;16.60;99.90
56308;DHT22;42217;50.422;7.210;2023-09-19T08:31:57;16.70;99.90
56308;DHT22;42217;50.422;7.210;2023-09-19T08:34:24;16.70;99.90
56308;DHT22;42217;50.422;7.210;2023-09-19T08:36:54;16.70;99.90
56308;DHT22;42217;50.422;7.210;2023-09-19T08:39:23;16.90;99.90
56308;DHT22;42217;50.422;7.210;2023-09-19T08:41:49;16.70;99.90
56308;DHT22;42217;50.422;7.210;2023-09-19T08:44:15;16.60;99.90
56308;DHT22;42217;50.422;7.210;2023-09-19T08:46:42;16.60;99.90
56308;DHT22;42217;50.422;7.210;2023-09-19T08:51:53;17.10;99.90
56308;DHT22;42217;50.422;7.210;2023-09-19T08:54:32;17.00;99.90
56308;DHT22;42217;50.422;7.210;2023-09-19T08:57:06;16.90;99.90
56308;DHT22;42217;50.422;7.210;2023-09-19T08:59:41;16.90;99.90
56308;DHT22;42217;50.422;7.210;2023-09-19T09:02:14;17.20;99.90
56308;DHT22;42217;50.422;7.210;2023-09-19T09:04:45;17.60;99.90
56308;DHT22;42217;50.422;7.210;2023-09-19T09:07:12;17.60;99.90
56308;DHT22;42217;50.422;7.210;2023-09-19T09:09:44;17.60;99.90
56308;DHT22;42217;50.422;7.210;2023-09-19T09:12:14;17.60;99.90
56308;DHT22;42217;50.422;7.210;2023-09-19T09:14:45;17.60;99.90
56308;DHT22;42217;50.422;7.210;2023-09-19T09:17:12;17.50;99.90
56308;DHT22;42217;50.422;7.210;2023-09-19T09:19:38;17.50;99.90
56308;DHT22;42217;50.422;7.210;2023-09-19T09:22:08;17.60;99.90
56308;DHT22;42217;50.422;7.210;2023-09-19T09:24:34;17.60;99.90
56308;DHT22;42217;50.422;7.210;2023-09-19T09:27:04;17.20;99.90
56308;DHT22;42217;50.422;7.210;2023-09-19T09:29:48;17.00;99.90
56308;DHT22;42217;50.422;7.210;2023-09-19T09:32:27;17.10;99.90
56308;DHT22;42217;50.422;7.210;2023-09-19T09:34:58;17.10;99.90
56308;DHT22;42217;50.422;7.210;2023-09-19T09:37:26;17.30;99.90
56308;DHT22;42217;50.422;7.210;2023-09-19T09:39:57;17.40;99.90
56308;DHT22;42217;50.422;7.210;2023-09-19T09:42:36;17.30;99.90
56308;DHT22;42217;50.422;7.210;2023-09-19T09:47:47;16.70;99.90
56308;DHT22;42217;50.422;7.210;2023-09-19T09:52:58;17.00;99.90
56308;DHT22;42217;50.422;7.210;2023-09-19T09:55:28;17.50;99.90
56308;DHT22;42217;50.422;7.210;2023-09-19T09:58:16;17.80;99.90
56308;DHT22;42217;50.422;7.210;2023-09-19T10:00:59;17.90;99.90
56308;DHT22;42217;50.422;7.210;2023-09-19T10:03:32;17.90;99.90
56308;DHT22;42217;50.422;7.210;2023-09-19T10:06:00;18.10;99.90
56308;DHT22;42217;50.422;7.210;2023-09-19T10:08:28;18.20;99.90
56308;DHT22;42217;50.422;7.210;2023-09-19T10:10:57;18.10;99.90
56308;DHT22;42217;50.422;7.210;2023-09-19T10:13:31;18.00;99.90
56308;DHT22;42217;50.422;7.210;2023-09-19T10:16:06;17.80;99.90
56308;DHT22;42217;50.422;7.210;2023-09-19T10:18:36;17.70;99.90
56308;DHT22;42217;50.422;7.210;2023-09-19T10:21:04;17.80;99.90
56308;DHT22;42217;50.422;7.210;2023-09-19T10:23:32;17.60;99.90
56308;DHT22;42217;50.422;7.210;2023-09-19T10:26:01;17.70;99.90
56308;DHT22;42217;50.422;7.210;2023-09-19T10:28:28;17.70;99.90
56308;DHT22;42217;50.422;7.210;2023-09-19T10:30:55;17.60;99.90
56308;DHT22;42217;50.422;7.210;2023-09-19T10:33:25;17.80;99.90
56308;DHT22;42217;50.422;7.210;2023-09-19T10:35:51;17.80;99.90
56308;DHT22;42217;50.422;7.210;2023-09-19T10:38:23;18.10;99.90
56308;DHT22;42217;50.422;7.210;2023-09-19T10:40:52;18.20;99.90
56308;DHT22;42217;50.422;7.210;2023-09-19T10:43:19;18.60;99.90
56308;DHT22;42217;50.422;7.210;2023-09-19T10:45:49;18.80;99.90
56308;DHT22;42217;50.422;7.210;2023-09-19T10:48:19;18.50;99.90
56308;DHT22;42217;50.422;7.210;2023-09-19T10:53:40;18.80;99.90
56308;DHT22;42217;50.422;7.210;2023-09-19T10:56:08;18.70;99.90
56308;DHT22;42217;50.422;7.210;2023-09-19T10:58:43;18.90;99.90
56308;DHT22;42217;50.422;7.210;2023-09-19T11:01:11;19.30;99.90
56308;DHT22;42217;50.422;7.210;2023-09-19T11:03:41;19.30;99.90
56308;DHT22;42217;50.422;7.210;2023-09-19T11:06:12;19.00;99.90
56308;DHT22;42217;50.422;7.210;2023-09-19T11:09:00;18.70;99.90
56308;DHT22;42217;50.422;7.210;2023-09-19T11:11:49;18.70;99.90
56308;DHT22;42217;50.422;7.210;2023-09-19T11:30:31;18.20;99.90
56308;DHT22;42217;50.422;7.210;2023-09-19T11:36:04;17.80;99.90
56308;DHT22;42217;50.422;7.210;2023-09-19T11:49:21;18.40;99.90
56308;DHT22;42217;50.422;7.210;2023-09-19T11:51:52;18.40;99.90
56308;DHT22;42217;50.422;7.210;2023-09-19T11:54:18;18.80;99.90
56308;DHT22;42217;50.422;7.210;2023-09-19T11:56:48;19.00;99.90
56308;DHT22;42217;50.422;7.210;2023-09-19T11:59:23;19.00;99.90
56308;DHT22;42217;50.422;7.210;2023-09-19T12:01:54;18.90;99.90
56308;DHT22;42217;50.422;7.210;2023-09-19T12:04:43;18.90;99.90
56308;DHT22;42217;50.422;7.210;2023-09-19T12:07:16;19.10;99.90
56308;DHT22;42217;50.422;7.210;2023-09-19T12:09:47;19.00;99.90
56308;DHT22;42217;50.422;7.210;2023-09-19T12:12:29;18.80;99.90
56308;DHT22;42217;50.422;7.210;2023-09-19T12:14:59;18.80;99.90
56308;DHT22;42217;50.422;7.210;2023-09-19T12:17:41;18.80;99.90
56308;DHT22;42217;50.422;7.210;2023-09-19T12:20:10;18.50;99.90
56308;DHT22;42217;50.422;7.210;2023-09-19T12:22:45;18.40;99.90
56308;DHT22;42217;50.422;7.210;2023-09-19T12:25:12;18.40;99.90
56308;DHT22;42217;50.422;7.210;2023-09-19T12:27:45;18.50;99.90
56308;DHT22;42217;50.422;7.210;2023-09-19T12:30:27;18.70;99.90
56308;DHT22;42217;50.422;7.210;2023-09-19T12:32:53;19.10;99.90
56308;DHT22;42217;50.422;7.210;2023-09-19T12:35:32;19.50;99.90
56308;DHT22;42217;50.422;7.210;2023-09-19T12:38:01;19.50;99.90
56308;DHT22;42217;50.422;7.210;2023-09-19T12:40:26;19.20;99.90
56308;DHT22;42217;50.422;7.210;2023-09-19T12:42:59;18.90;99.90
56308;DHT22;42217;50.422;7.210;2023-09-19T12:45:25;18.90;99.90
56308;DHT22;42217;50.422;7.210;2023-09-19T12:48:23;18.80;99.90
56308;DHT22;42217;50.422;7.210;2023-09-19T12:51:12;18.70;99.90
56308;DHT22;42217;50.422;7.210;2023-09-19T12:56:08;18.70;99.90
56308;DHT22;42217;50.422;7.210;2023-09-19T12:58:57;18.70;99.90
56308;DHT22;42217;50.422;7.210;2023-09-19T13:01:28;18.60;99.90
56308;DHT22;42217;50.422;7.210;2023-09-19T13:06:50;19.10;99.90
56308;DHT22;42217;50.422;7.210;2023-09-19T13:09:21;19.30;99.90
56308;DHT22;42217;50.422;7.210;2023-09-19T13:11:47;19.10;99.90
56308;DHT22;42217;50.422;7.210;2023-09-19T13:17:04;19.20;99.90
56308;DHT22;42217;50.422;7.210;2023-09-19T13:19:42;19.30;99.90
56308;DHT22;42217;50.422;7.210;2023-09-19T13:22:44;19.40;99.90
56308;DHT22;42217;50.422;7.210;2023-09-19T13:25:18;19.50;99.90
56308;DHT22;42217;50.422;7.210;2023-09-19T13:27:46;19.70;99.90
56308;DHT22;42217;50.422;7.210;2023-09-19T13:30:13;19.80;99.90
56308;DHT22;42217;50.422;7.210;2023-09-19T13:32:40;19.90;99.90
56308;DHT22;42217;50.422;7.210;2023-09-19T13:35:08;20.10;99.90
56308;DHT22;42217;50.422;7.210;2023-09-19T13:37:39;20.00;99.90
56308;DHT22;42217;50.422;7.210;2023-09-19T13:40:09;20.10;99.90
56308;DHT22;42217;50.422;7.210;2023-09-19T13:42:35;20.60;99.90
56308;DHT22;42217;50.422;7.210;2023-09-19T13:45:02;21.40;99.90
56308;DHT22;42217;50.422;7.210;2023-09-19T13:47:32;21.50;98.90
56308;DHT22;42217;50.422;7.210;2023-09-19T13:49:59;21.90;98.10
56308;DHT22;42217;50.422;7.210;2023-09-19T13:52:26;22.30;97.10
56308;DHT22;42217;50.422;7.210;2023-09-19T13:54:54;22.90;96.70
56308;DHT22;42217;50.422;7.210;2023-09-19T13:57:26;23.40;95.00
56308;DHT22;42217;50.422;7.210;2023-09-19T13:59:52;23.50;93.70
56308;DHT22;42217;50.422;7.210;2023-09-19T14:02:22;23.50;93.30
56308;DHT22;42217;50.422;7.210;2023-09-19T14:04:49;23.80;91.90
56308;DHT22;42217;50.422;7.210;2023-09-19T14:07:15;23.80;91.30
56308;DHT22;42217;50.422;7.210;2023-09-19T14:09:41;23.60;90.10
56308;DHT22;42217;50.422;7.210;2023-09-19T14:12:07;23.60;89.30
56308;DHT22;42217;50.422;7.210;2023-09-19T14:14:33;23.10;89.10
56308;DHT22;42217;50.422;7.210;2023-09-19T14:16:58;23.20;89.60
56308;DHT22;42217;50.422;7.210;2023-09-19T14:19:27;22.70;90.30
56308;DHT22;42217;50.422;7.210;2023-09-19T14:21:52;22.70;91.30
56308;DHT22;42217;50.422;7.210;2023-09-19T14:24:21;23.70;90.00
56308;DHT22;42217;50.422;7.210;2023-09-19T14:26:47;25.10;87.20
56308;DHT22;42217;50.422;7.210;2023-09-19T14:29:15;25.50;86.30
56308;DHT22;42217;50.422;7.210;2023-09-19T14:31:41;26.10;83.50
56308;DHT22;42217;50.422;7.210;2023-09-19T14:34:07;25.40;81.10
56308;DHT22;42217;50.422;7.210;2023-09-19T14:36:36;25.40;80.90
56308;DHT22;42217;50.422;7.210;2023-09-19T14:39:02;26.30;80.00
56308;DHT22;42217;50.422;7.210;2023-09-19T14:41:28;26.80;78.80
56308;DHT22;42217;50.422;7.210;2023-09-19T14:43:54;25.80;78.80
56308;DHT22;42217;50.422;7.210;2023-09-19T14:46:23;25.00;80.20
56308;DHT22;42217;50.422;7.210;2023-09-19T14:48:52;24.40;81.40
56308;DHT22;42217;50.422;7.210;2023-09-19T14:51:18;24.60;82.70
56308;DHT22;42217;50.422;7.210;2023-09-19T14:53:45;24.40;82.30
56308;DHT22;42217;50.422;7.210;2023-09-19T14:56:12;24.90;82.20
56308;DHT22;42217;50.422;7.210;2023-09-19T14:58:38;25.40;80.90
56308;DHT22;42217;50.422;7.210;2023-09-19T15:01:06;25.50;79.90
56308;DHT22;42217;50.422;7.210;2023-09-19T15:03:33;25.90;81.20
56308;DHT22;42217;50.422;7.210;2023-09-19T15:06:02;26.70;78.00
56308;DHT22;42217;50.422;7.210;2023-09-19T15:08:33;27.00;76.60
56308;DHT22;42217;50.422;7.210;2023-09-19T15:11:01;26.20;76.80
56308;DHT22;42217;50.422;7.210;2023-09-19T15:13:31;25.60;77.70
56308;DHT22;42217;50.422;7.210;2023-09-19T15:16:00;25.10;78.30
56308;DHT22;42217;50.422;7.210;2023-09-19T15:18:28;25.00;79.60
56308;DHT22;42217;50.422;7.210;2023-09-19T15:20:55;24.00;80.10
56308;DHT22;42217;50.422;7.210;2023-09-19T15:23:21;22.80;83.70
56308;DHT22;42217;50.422;7.210;2023-09-19T15:25:49;22.30;85.80
56308;DHT22;42217;50.422;7.210;2023-09-19T15:28:16;21.70;87.80
56308;DHT22;42217;50.422;7.210;2023-09-19T15:30:41;21.70;88.50
56308;DHT22;42217;50.422;7.210;2023-09-19T15:33:07;21.50;89.90
56308;DHT22;42217;50.422;7.210;2023-09-19T15:35:33;22.30;88.60
56308;DHT22;42217;50.422;7.210;2023-09-19T15:37:58;22.80;87.00
56308;DHT22;42217;50.422;7.210;2023-09-19T15:40:26;22.90;86.40
56308;DHT22;42217;50.422;7.210;2023-09-19T15:42:55;23.20;86.70
56308;DHT22;42217;50.422;7.210;2023-09-19T15:45:25;23.50;85.60
56308;DHT22;42217;50.422;7.210;2023-09-19T15:47:52;24.00;84.70
56308;DHT22;42217;50.422;7.210;2023-09-19T15:50:18;23.90;85.30
56308;DHT22;42217;50.422;7.210;2023-09-19T15:52:44;24.00;85.20
56308;DHT22;42217;50.422;7.210;2023-09-19T15:55:11;23.70;85.90
56308;DHT22;42217;50.422;7.210;2023-09-19T15:57:38;22.70;87.90
56308;DHT22;42217;50.422;7.210;2023-09-19T16:00:05;21.90;89.50
56308;DHT22;42217;50.422;7.210;2023-09-19T16:02:36;21.40;90.90
56308;DHT22;42217;50.422;7.210;2023-09-19T16:05:02;21.70;90.80
56308;DHT22;42217;50.422;7.210;2023-09-19T16:07:31;21.90;90.80
56308;DHT22;42217;50.422;7.210;2023-09-19T16:09:57;21.80;90.80
56308;DHT22;42217;50.422;7.210;2023-09-19T16:12:24;21.60;91.20
56308;DHT22;42217;50.422;7.210;2023-09-19T16:14:50;20.70;92.40
56308;DHT22;42217;50.422;7.210;2023-09-19T16:17:16;20.10;94.40
56308;DHT22;42217;50.422;7.210;2023-09-19T16:19:41;19.70;96.20
56308;DHT22;42217;50.422;7.210;2023-09-19T16:22:09;19.40;97.80
56308;DHT22;42217;50.422;7.210;2023-09-19T16:24:35;19.20;99.60
56308;DHT22;42217;50.422;7.210;2023-09-19T16:27:01;19.00;99.90
56308;DHT22;42217;50.422;7.210;2023-09-19T16:29:26;18.90;99.90
56308;DHT22;42217;50.422;7.210;2023-09-19T16:31:52;18.80;99.90
56308;DHT22;42217;50.422;7.210;2023-09-19T16:34:18;18.90;99.90
56308;DHT22;42217;50.422;7.210;2023-09-19T16:36:43;18.80;99.90
56308;DHT22;42217;50.422;7.210;2023-09-19T16:39:10;18.70;99.90
56308;DHT22;42217;50.422;7.210;2023-09-19T16:41:36;18.70;99.90
56308;DHT22;42217;50.422;7.210;2023-09-19T16:44:02;18.60;99.90